Time;durP1;ratioP1;P1;durP2;ratioP2;P2;SDS_P1;SDS_P2;PMS_P1;PMS_P2;Temp;Humidity;BMP_temperature;BMP_pressure;BME280_temperature;BME280_humidity;BME280_pressure;Samples;Min_cycle;Max_cycle;Signal;HPM_P1;HPM_P2
2022/03/01 00:02:08;;;;;;;15.60;10.48;;;3.40;99.90;;;;;;5152322;27;20045;-67
2022/03/01 00:04:33;;;;;;;15.43;10.32;;;3.40;99.90;;;;;;5149848;27;20174;-67
2022/03/01 00:06:59;;;;;;;18.60;10.38;;;3.30;99.90;;;;;;5148816;27;20051;-67
2022/03/01 00:09:25;;;;;;;16.02;10.38;;;3.30;99.90;;;;;;5151854;27;20084;-67
2022/03/01 00:11:50;;;;;;;18.70;10.75;;;3.30;99.90;;;;;;5152758;27;20713;-67
2022/03/01 00:14:16;;;;;;;18.63;11.57;;;3.20;99.90;;;;;;5150096;27;20035;-67
2022/03/01 00:16:42;;;;;;;16.55;10.98;;;3.20;99.90;;;;;;5152017;27;20031;-67
2022/03/01 00:19:07;;;;;;;21.17;11.02;;;3.20;99.90;;;;;;5152133;27;20030;-67
2022/03/01 00:21:33;;;;;;;18.13;11.10;;;3.20;99.90;;;;;;5151753;27;20051;-67
2022/03/01 00:23:59;;;;;;;15.60;10.68;;;3.10;99.90;;;;;;5150227;27;20634;-67
2022/03/01 00:26:25;;;;;;;17.92;10.48;;;3.10;99.90;;;;;;5152408;27;20432;-67
2022/03/01 00:28:51;;;;;;;21.20;11.20;;;3.10;99.90;;;;;;5151044;27;20038;-67
2022/03/01 00:31:16;;;;;;;16.92;10.82;;;3.10;99.90;;;;;;5150909;27;20118;-67
2022/03/01 00:33:42;;;;;;;17.63;11.02;;;3.00;99.90;;;;;;5149769;27;20049;-67
2022/03/01 00:36:08;;;;;;;19.60;10.55;;;3.00;99.90;;;;;;5150105;27;20106;-67
2022/03/01 00:38:34;;;;;;;18.08;10.40;;;3.00;99.90;;;;;;5151779;27;20064;-67
2022/03/01 00:40:59;;;;;;;18.70;10.82;;;3.00;99.90;;;;;;5150825;27;20042;-67
2022/03/01 00:43:25;;;;;;;16.42;10.68;;;3.00;99.90;;;;;;5148448;27;20628;-67
2022/03/01 00:45:53;;;;;;;17.00;11.05;;;3.00;99.90;;;;;;5152739;27;20707;-67
2022/03/01 00:48:20;;;;;;;15.75;9.45;;;2.90;99.90;;;;;;5150210;27;20023;-67
2022/03/01 00:50:46;;;;;;;18.52;11.57;;;2.90;99.90;;;;;;5151042;27;20405;-67
2022/03/01 00:53:12;;;;;;;18.63;11.13;;;2.90;99.90;;;;;;5149587;27;20051;-67
2022/03/01 00:55:37;;;;;;;18.65;10.40;;;2.90;99.90;;;;;;5149367;27;20467;-67
2022/03/01 00:58:03;;;;;;;17.30;10.63;;;2.90;99.90;;;;;;5150309;27;20436;-67
2022/03/01 01:00:30;;;;;;;17.05;11.20;;;2.90;99.90;;;;;;5151523;27;20065;-67
2022/03/01 01:02:56;;;;;;;17.95;10.93;;;2.80;99.90;;;;;;5151041;27;20031;-67
2022/03/01 01:05:22;;;;;;;19.67;11.25;;;2.80;99.90;;;;;;5150958;27;20041;-67
2022/03/01 01:07:49;;;;;;;15.38;10.63;;;2.80;99.90;;;;;;5148744;27;20067;-67
2022/03/01 01:10:15;;;;;;;17.10;10.57;;;2.80;99.90;;;;;;5150874;27;20137;-67
2022/03/01 01:12:41;;;;;;;15.38;10.40;;;2.80;99.90;;;;;;5151909;27;20049;-67
2022/03/01 01:15:08;;;;;;;15.88;10.43;;;2.80;99.90;;;;;;5149445;27;20066;-67
2022/03/01 01:17:34;;;;;;;17.00;10.52;;;2.80;99.90;;;;;;5150836;27;20091;-66
2022/03/01 01:20:00;;;;;;;18.58;10.18;;;2.80;99.90;;;;;;5149074;27;20486;-67
2022/03/01 01:22:40;;;;;;;17.63;10.75;;;2.80;99.90;;;;;;5149244;27;20047;-67
2022/03/01 01:25:13;;;;;;;15.90;10.90;;;2.80;99.90;;;;;;5147956;27;20047;-67
2022/03/01 01:27:45;;;;;;;18.80;11.32;;;2.80;99.90;;;;;;5132551;27;20046;-67
2022/03/01 01:30:13;;;;;;;19.75;11.57;;;2.80;99.90;;;;;;5148145;27;20356;-67
2022/03/01 01:32:40;;;;;;;18.13;10.95;;;3.10;99.90;;;;;;5151084;27;20138;-67
2022/03/01 01:35:07;;;;;;;15.98;10.95;;;2.80;99.90;;;;;;5148693;27;20635;-67
2022/03/01 01:37:33;;;;;;;20.20;11.18;;;2.80;99.90;;;;;;5150704;27;20034;-67
2022/03/01 01:39:59;;;;;;;16.10;10.90;;;2.70;99.90;;;;;;5149714;27;20538;-67
2022/03/01 01:42:25;;;;;;;18.75;11.65;;;2.70;99.90;;;;;;5150773;27;20746;-67
2022/03/01 01:44:51;;;;;;;20.05;12.07;;;2.70;99.90;;;;;;5150513;27;20068;-66
2022/03/01 01:47:17;;;;;;;20.90;11.68;;;2.70;99.90;;;;;;5148099;27;20039;-67
2022/03/01 01:49:42;;;;;;;19.00;11.30;;;2.70;99.90;;;;;;5149153;27;20125;-67
2022/03/01 01:52:08;;;;;;;16.05;10.60;;;2.60;99.90;;;;;;5150364;27;20091;-66
2022/03/01 01:54:34;;;;;;;19.38;10.98;;;2.60;99.90;;;;;;5150138;27;20427;-67
2022/03/01 01:57:00;;;;;;;16.63;11.15;;;2.60;99.90;;;;;;5148663;27;20069;-67
2022/03/01 01:59:26;;;;;;;16.52;10.82;;;2.60;99.90;;;;;;5150300;27;20069;-66
2022/03/01 02:01:51;;;;;;;16.65;11.52;;;2.60;99.90;;;;;;5149516;27;20208;-67
2022/03/01 02:04:17;;;;;;;17.83;10.85;;;2.60;99.90;;;;;;5146156;27;20038;-67
2022/03/01 02:06:50;;;;;;;19.98;11.10;;;2.50;99.90;;;;;;5147686;27;20045;-66
2022/03/01 02:09:16;;;;;;;18.02;11.70;;;2.50;99.90;;;;;;5150848;27;20130;-67
2022/03/01 02:11:42;;;;;;;17.73;12.05;;;2.50;99.90;;;;;;5150329;27;20133;-67
2022/03/01 02:14:07;;;;;;;17.70;10.98;;;2.50;99.90;;;;;;5147801;27;20368;-66
2022/03/01 02:16:34;;;;;;;19.25;10.90;;;2.50;99.90;;;;;;5150428;27;20084;-67
2022/03/01 02:19:00;;;;;;;20.52;11.27;;;2.50;99.90;;;;;;5150685;27;20039;-66
2022/03/01 02:21:25;;;;;;;19.30;11.90;;;2.50;99.90;;;;;;5150009;27;20395;-66
2022/03/01 02:23:51;;;;;;;18.05;11.95;;;2.40;99.90;;;;;;5148825;27;20467;-67
2022/03/01 02:26:17;;;;;;;21.13;12.20;;;2.40;99.90;;;;;;5148727;27;20037;-67
2022/03/01 02:28:42;;;;;;;17.40;11.40;;;2.40;99.90;;;;;;5148450;27;20044;-66
2022/03/01 02:31:08;;;;;;;18.00;11.75;;;2.40;99.90;;;;;;5149046;27;20043;-66
2022/03/01 02:33:34;;;;;;;19.42;12.00;;;2.40;99.90;;;;;;5147953;27;20031;-67
2022/03/01 02:35:59;;;;;;;19.10;11.30;;;2.40;99.90;;;;;;5150051;27;20591;-67
2022/03/01 02:38:25;;;;;;;18.83;12.25;;;2.40;99.90;;;;;;5147663;27;20422;-66
2022/03/01 02:40:50;;;;;;;20.17;11.82;;;2.30;99.90;;;;;;5148317;27;20137;-66
2022/03/01 02:43:16;;;;;;;21.48;12.30;;;2.40;99.90;;;;;;5148078;27;20516;-67
2022/03/01 02:45:42;;;;;;;17.30;11.25;;;2.40;99.90;;;;;;5149982;27;20042;-67
2022/03/01 02:48:08;;;;;;;20.50;11.93;;;2.40;99.90;;;;;;5148682;27;20078;-67
2022/03/01 02:50:33;;;;;;;20.27;11.30;;;2.30;99.90;;;;;;5151212;27;20055;-67
2022/03/01 02:52:59;;;;;;;20.35;11.52;;;2.40;99.90;;;;;;5148256;27;20042;-67
2022/03/01 02:55:25;;;;;;;18.65;11.38;;;2.30;99.90;;;;;;5149840;27;20539;-66
2022/03/01 02:57:50;;;;;;;19.80;11.75;;;2.30;99.90;;;;;;5130689;27;20109;-66
2022/03/01 03:00:16;;;;;;;20.20;11.65;;;2.30;99.90;;;;;;5148711;27;20049;-67
2022/03/01 03:02:43;;;;;;;21.17;12.30;;;2.30;99.90;;;;;;5148454;27;20056;-66
2022/03/01 03:05:09;;;;;;;20.40;12.60;;;2.30;99.90;;;;;;5146327;27;20050;-66
2022/03/01 03:07:35;;;;;;;17.30;11.18;;;2.30;99.90;;;;;;5150043;27;20039;-66
2022/03/01 03:10:01;;;;;;;18.48;11.18;;;2.30;99.90;;;;;;5149374;27;20406;-66
2022/03/01 03:12:28;;;;;;;17.02;11.70;;;2.30;99.90;;;;;;5147724;27;20078;-66
2022/03/01 03:14:53;;;;;;;18.65;11.80;;;3.30;99.90;;;;;;5149654;27;20035;-66
2022/03/01 03:17:19;;;;;;;17.98;11.57;;;3.50;99.90;;;;;;5149609;27;20378;-67
2022/03/01 03:19:44;;;;;;;19.38;12.48;;;2.20;99.90;;;;;;5148002;27;20401;-66
2022/03/01 03:22:10;;;;;;;21.38;12.18;;;2.20;99.90;;;;;;5147262;27;20041;-67
2022/03/01 03:24:36;;;;;;;20.20;11.25;;;2.20;99.90;;;;;;5146975;27;20035;-67
2022/03/01 03:27:02;;;;;;;16.45;11.00;;;2.30;99.90;;;;;;5149111;27;20077;-67
2022/03/01 03:29:27;;;;;;;20.38;11.90;;;2.30;99.90;;;;;;5148783;27;20038;-67
2022/03/01 03:31:57;;;;;;;17.65;11.65;;;2.30;99.90;;;;;;5147472;27;20035;-67
2022/03/01 03:34:23;;;;;;;18.13;11.63;;;2.40;99.90;;;;;;5148600;27;20034;-67
2022/03/01 03:36:49;;;;;;;19.83;11.90;;;2.40;99.90;;;;;;5149740;27;20035;-67
2022/03/01 03:39:15;;;;;;;19.67;12.45;;;2.50;99.90;;;;;;5147490;27;20037;-67
2022/03/01 03:41:41;;;;;;;18.83;11.77;;;2.50;99.90;;;;;;5149014;27;20084;-67
2022/03/01 03:44:07;;;;;;;18.83;11.32;;;2.60;99.90;;;;;;5147968;27;20037;-67
2022/03/01 03:46:33;;;;;;;17.95;11.23;;;2.60;99.90;;;;;;5148525;27;20043;-67
2022/03/01 03:48:59;;;;;;;18.63;11.95;;;2.90;99.90;;;;;;5147691;27;20568;-67
2022/03/01 03:51:25;;;;;;;19.27;11.32;;;2.60;99.90;;;;;;5148783;27;20026;-67
2022/03/01 03:53:52;;;;;;;19.35;12.07;;;3.30;99.90;;;;;;5147807;27;20079;-67
2022/03/01 03:56:18;;;;;;;21.30;11.55;;;2.70;99.90;;;;;;5147385;27;20038;-67
2022/03/01 03:58:43;;;;;;;17.55;11.40;;;2.70;99.90;;;;;;5149208;27;20554;-67
2022/03/01 04:01:09;;;;;;;19.42;12.45;;;2.70;99.90;;;;;;5148164;27;20039;-67
2022/03/01 04:03:35;;;;;;;20.02;12.20;;;2.70;99.90;;;;;;5145850;27;20038;-67
2022/03/01 04:06:01;;;;;;;18.85;11.73;;;2.70;99.90;;;;;;5147954;27;20034;-67
2022/03/01 04:08:27;;;;;;;19.88;12.38;;;2.70;99.90;;;;;;5145561;27;20035;-67
2022/03/01 04:10:57;;;;;;;21.17;12.27;;;2.70;99.90;;;;;;5146765;27;20051;-67
2022/03/01 04:13:23;;;;;;;19.85;12.13;;;2.70;99.90;;;;;;5147847;27;20038;-67
2022/03/01 04:15:50;;;;;;;21.10;12.70;;;2.70;99.90;;;;;;5148055;27;20123;-67
2022/03/01 04:18:16;;;;;;;20.58;11.80;;;2.70;99.90;;;;;;5148895;27;20031;-67
2022/03/01 04:20:42;;;;;;;19.10;12.10;;;2.60;99.90;;;;;;5146845;27;20061;-67
2022/03/01 04:23:07;;;;;;;19.50;12.50;;;2.60;99.90;;;;;;5149222;27;20041;-67
2022/03/01 04:25:33;;;;;;;19.15;12.20;;;2.60;99.90;;;;;;5147326;27;20117;-67
2022/03/01 04:27:59;;;;;;;19.77;12.38;;;2.60;99.90;;;;;;5148071;27;20053;-67
2022/03/01 04:30:27;;;;;;;23.98;12.27;;;2.60;99.90;;;;;;5146223;27;20031;-67
2022/03/01 04:32:53;;;;;;;17.90;12.40;;;2.60;99.90;;;;;;5146872;27;20042;-67
2022/03/01 04:35:19;;;;;;;22.88;12.60;;;2.70;99.90;;;;;;5147442;27;20042;-67
2022/03/01 04:37:45;;;;;;;18.92;12.20;;;2.70;99.90;;;;;;5151425;27;20389;-67
2022/03/01 04:40:14;;;;;;;20.52;12.02;;;2.60;99.90;;;;;;5151185;27;20046;-67
2022/03/01 04:42:40;;;;;;;19.15;12.48;;;2.70;99.90;;;;;;5150194;27;20516;-67
2022/03/01 04:45:06;;;;;;;19.95;12.93;;;2.70;99.90;;;;;;5152789;27;20046;-67
2022/03/01 04:47:33;;;;;;;18.92;12.02;;;2.70;99.90;;;;;;5151558;27;20065;-67
2022/03/01 04:49:59;;;;;;;19.17;11.32;;;2.70;99.90;;;;;;5151541;27;20072;-67
2022/03/01 04:52:25;;;;;;;21.83;12.38;;;2.70;99.90;;;;;;5153611;27;20488;-67
2022/03/01 04:54:50;;;;;;;18.30;12.15;;;2.70;99.90;;;;;;5151038;27;20038;-67
2022/03/01 04:57:16;;;;;;;17.25;11.57;;;2.70;99.90;;;;;;5152081;27;20035;-67
2022/03/01 04:59:42;;;;;;;19.83;12.15;;;2.70;99.90;;;;;;5152359;27;20034;-67
2022/03/01 05:02:08;;;;;;;21.95;12.10;;;2.70;99.90;;;;;;5150945;27;20050;-67
2022/03/01 05:04:33;;;;;;;17.77;11.02;;;2.70;99.90;;;;;;5131685;27;20406;-67
2022/03/01 05:06:59;;;;;;;18.35;12.20;;;2.70;99.90;;;;;;5150801;27;20038;-67
2022/03/01 05:09:25;;;;;;;19.23;12.23;;;2.70;99.90;;;;;;5151426;27;20046;-67
2022/03/01 05:11:51;;;;;;;19.33;12.63;;;2.80;99.90;;;;;;5152035;27;20066;-67
2022/03/01 05:14:17;;;;;;;19.35;11.88;;;2.80;99.90;;;;;;5150673;27;20125;-67
2022/03/01 05:16:44;;;;;;;19.80;11.90;;;3.40;99.90;;;;;;5151038;27;20034;-67
2022/03/01 05:19:09;;;;;;;20.20;11.98;;;2.80;99.90;;;;;;5151135;27;20038;-67
2022/03/01 05:21:36;;;;;;;23.83;11.98;;;2.80;99.90;;;;;;5150408;27;20422;-67
2022/03/01 05:24:02;;;;;;;19.95;12.82;;;2.80;99.90;;;;;;5151231;27;20054;-67
2022/03/01 05:26:28;;;;;;;21.75;12.60;;;2.80;99.90;;;;;;5149654;27;20107;-67
2022/03/01 05:28:54;;;;;;;20.17;12.45;;;2.80;99.90;;;;;;5149319;27;20030;-67
2022/03/01 05:31:20;;;;;;;21.55;12.70;;;2.80;99.90;;;;;;5148677;27;20074;-67
2022/03/01 05:33:46;;;;;;;19.52;12.48;;;2.90;99.90;;;;;;5149705;27;20042;-67
2022/03/01 05:36:13;;;;;;;21.30;12.43;;;2.90;99.90;;;;;;5150945;27;20039;-67
2022/03/01 05:38:39;;;;;;;20.55;12.10;;;2.80;99.90;;;;;;5148997;27;20382;-67
2022/03/01 05:41:05;;;;;;;18.10;12.20;;;2.80;99.90;;;;;;5150149;27;20041;-67
2022/03/01 05:43:32;;;;;;;20.02;12.88;;;2.80;99.90;;;;;;5150058;27;20050;-67
2022/03/01 05:45:57;;;;;;;19.52;12.07;;;2.70;99.90;;;;;;5150009;27;20072;-67
2022/03/01 05:48:23;;;;;;;20.67;12.93;;;2.70;99.90;;;;;;5150658;27;20035;-67
2022/03/01 05:50:49;;;;;;;19.60;11.70;;;2.70;99.90;;;;;;5149122;27;20031;-67
2022/03/01 05:53:15;;;;;;;20.17;12.82;;;2.60;99.90;;;;;;5149752;27;20063;-67
2022/03/01 05:55:41;;;;;;;21.75;11.90;;;2.60;99.90;;;;;;5149069;27;20624;-67
2022/03/01 05:58:07;;;;;;;24.13;12.93;;;2.60;99.90;;;;;;5150107;27;20043;-67
2022/03/01 06:00:33;;;;;;;21.75;13.48;;;2.60;99.90;;;;;;5148093;27;20498;-67
2022/03/01 06:02:59;;;;;;;19.98;12.63;;;2.60;99.90;;;;;;5149821;27;20126;-67
2022/03/01 06:05:26;;;;;;;20.85;11.50;;;2.60;99.90;;;;;;5148098;27;20121;-67
2022/03/01 06:07:51;;;;;;;24.75;13.07;;;2.50;99.90;;;;;;5149198;27;20039;-67
2022/03/01 06:10:17;;;;;;;21.88;14.02;;;2.70;99.90;;;;;;5150976;27;20513;-67
2022/03/01 06:12:43;;;;;;;22.60;12.88;;;2.50;99.90;;;;;;5148483;27;20066;-67
2022/03/01 06:15:09;;;;;;;18.75;12.55;;;2.50;99.90;;;;;;5148592;27;20035;-67
2022/03/01 06:17:35;;;;;;;18.70;12.55;;;2.60;99.90;;;;;;5149579;27;20035;-67
2022/03/01 06:20:01;;;;;;;20.83;12.75;;;2.50;99.90;;;;;;5147615;27;20035;-67
2022/03/01 06:22:28;;;;;;;21.50;13.30;;;2.60;99.90;;;;;;5149048;27;20434;-67
2022/03/01 06:24:55;;;;;;;18.77;13.18;;;2.70;99.90;;;;;;5149203;27;20359;-68
2022/03/01 06:27:22;;;;;;;19.60;13.30;;;2.60;99.90;;;;;;5149160;27;20162;-67
2022/03/01 06:29:48;;;;;;;18.15;12.55;;;2.70;99.90;;;;;;5147719;27;20091;-67
2022/03/01 06:32:13;;;;;;;20.60;13.82;;;2.70;99.90;;;;;;5150523;27;20031;-67
2022/03/01 06:34:39;;;;;;;21.40;12.95;;;2.70;99.90;;;;;;5149465;27;20524;-67
2022/03/01 06:37:06;;;;;;;22.23;12.93;;;2.70;99.90;;;;;;5148042;27;20043;-67
2022/03/01 06:39:32;;;;;;;19.63;12.75;;;2.80;99.90;;;;;;5149462;27;20054;-67
2022/03/01 06:41:59;;;;;;;20.10;12.15;;;2.80;99.90;;;;;;5149794;27;20038;-67
2022/03/01 06:44:25;;;;;;;23.58;13.50;;;2.80;99.90;;;;;;5148736;27;20085;-67
2022/03/01 06:46:50;;;;;;;22.70;13.75;;;2.80;99.90;;;;;;5149403;27;20043;-68
2022/03/01 06:49:16;;;;;;;20.70;13.27;;;2.90;99.90;;;;;;5149687;27;20031;-67
2022/03/01 06:51:42;;;;;;;21.95;13.00;;;2.90;99.90;;;;;;5149099;27;20050;-67
2022/03/01 06:54:07;;;;;;;19.88;12.07;;;3.00;99.90;;;;;;5148554;27;20039;-67
2022/03/01 06:56:33;;;;;;;19.58;12.75;;;3.00;99.90;;;;;;5149392;27;20049;-68
2022/03/01 06:58:59;;;;;;;19.90;12.75;;;3.00;99.90;;;;;;5146454;27;20110;-67
2022/03/01 07:01:24;;;;;;;20.98;12.95;;;3.10;99.90;;;;;;5149326;27;20062;-67
2022/03/01 07:03:50;;;;;;;18.70;12.10;;;3.10;99.90;;;;;;5146685;27;20084;-67
2022/03/01 07:06:15;;;;;;;19.85;12.90;;;3.20;99.90;;;;;;5147049;27;20043;-67
2022/03/01 07:08:41;;;;;;;22.45;12.35;;;3.20;99.90;;;;;;5148926;27;20079;-67
2022/03/01 07:11:07;;;;;;;20.25;12.75;;;3.20;99.90;;;;;;5148461;27;20054;-67
2022/03/01 07:13:33;;;;;;;21.65;12.90;;;3.30;99.90;;;;;;5127641;27;20066;-67
2022/03/01 07:15:58;;;;;;;22.30;13.35;;;3.30;99.90;;;;;;5143940;27;20034;-67
2022/03/01 07:18:24;;;;;;;20.60;12.77;;;3.40;99.90;;;;;;5130219;27;20190;-67
2022/03/01 07:20:49;;;;;;;19.08;13.30;;;3.40;99.90;;;;;;5150375;27;20042;-67
2022/03/01 07:23:15;;;;;;;22.70;13.90;;;3.50;99.90;;;;;;5148775;27;20125;-67
2022/03/01 07:25:41;;;;;;;22.02;14.35;;;3.50;99.90;;;;;;5148582;27;20053;-67
2022/03/01 07:28:07;;;;;;;22.58;12.98;;;3.60;99.90;;;;;;5146284;27;20038;-67
2022/03/01 07:30:33;;;;;;;20.48;13.77;;;3.60;99.90;;;;;;5148869;27;20501;-67
2022/03/01 07:32:59;;;;;;;25.73;14.05;;;3.60;99.90;;;;;;5150565;27;20355;-67
2022/03/01 07:35:26;;;;;;;21.55;13.07;;;3.70;99.90;;;;;;5147310;27;20026;-67
2022/03/01 07:37:52;;;;;;;22.70;13.57;;;3.80;99.90;;;;;;5148975;27;20042;-67
2022/03/01 07:40:21;;;;;;;21.98;13.23;;;3.80;99.90;;;;;;5148535;27;20046;-67
2022/03/01 07:42:47;;;;;;;19.75;13.50;;;3.70;99.90;;;;;;5148062;27;20117;-67
2022/03/01 07:45:13;;;;;;;23.48;12.95;;;3.70;99.90;;;;;;5142878;27;20119;-67
2022/03/01 07:47:39;;;;;;;22.92;14.13;;;4.90;99.90;;;;;;5146924;27;20083;-68
2022/03/01 07:50:06;;;;;;;21.83;13.18;;;3.80;99.90;;;;;;5148429;27;20039;-67
2022/03/01 07:52:32;;;;;;;20.10;12.38;;;3.80;99.90;;;;;;5147745;27;20493;-67
2022/03/01 07:54:58;;;;;;;23.02;14.10;;;3.80;99.90;;;;;;5149338;27;20027;-69
2022/03/01 07:57:24;;;;;;;19.83;13.02;;;3.90;99.90;;;;;;5149694;27;20399;-68
2022/03/01 07:59:50;;;;;;;23.05;13.60;;;4.00;99.90;;;;;;5144580;27;20038;-67
2022/03/01 08:02:16;;;;;;;21.15;13.13;;;3.90;99.90;;;;;;5149092;27;20136;-67
2022/03/01 08:04:42;;;;;;;21.30;13.95;;;3.90;99.90;;;;;;5145323;27;20427;-68
2022/03/01 08:07:09;;;;;;;22.25;12.90;;;4.00;99.90;;;;;;5146377;27;20487;-68
2022/03/01 08:09:36;;;;;;;23.35;13.35;;;4.70;99.90;;;;;;5145531;27;20039;-68
2022/03/01 08:12:04;;;;;;;21.42;13.70;;;4.10;99.90;;;;;;5149137;27;20078;-68
2022/03/01 08:14:31;;;;;;;19.00;12.98;;;4.10;99.90;;;;;;5153149;27;20034;-67
2022/03/01 08:16:57;;;;;;;21.50;14.15;;;4.20;99.90;;;;;;5153118;27;20050;-68
2022/03/01 08:19:23;;;;;;;18.48;13.40;;;4.20;99.90;;;;;;5153704;27;20486;-68
2022/03/01 08:21:49;;;;;;;20.40;13.75;;;4.20;99.90;;;;;;5154396;27;20077;-68
2022/03/01 08:24:15;;;;;;;24.63;13.93;;;4.30;99.90;;;;;;5150573;27;20027;-68
2022/03/01 08:26:41;;;;;;;19.65;13.63;;;4.40;99.90;;;;;;5151002;27;21038;-70
2022/03/01 08:29:07;;;;;;;19.23;13.05;;;4.40;99.90;;;;;;5152887;27;20045;-68
2022/03/01 08:31:33;;;;;;;21.58;13.70;;;4.50;99.90;;;;;;5151903;27;20359;-67
2022/03/01 08:33:59;;;;;;;19.63;13.07;;;4.50;99.90;;;;;;5149058;27;20041;-67
2022/03/01 08:36:28;;;;;;;24.63;16.70;;;4.60;99.90;;;;;;5147659;27;20041;-71
2022/03/01 08:38:54;;;;;;;20.23;13.85;;;4.70;99.90;;;;;;5150102;27;20087;-71
2022/03/01 08:41:20;;;;;;;21.40;13.40;;;4.80;99.90;;;;;;5134681;27;20046;-71
2022/03/01 08:43:45;;;;;;;21.40;13.32;;;4.90;99.90;;;;;;5151048;27;20064;-71
2022/03/01 08:46:13;;;;;;;22.48;13.90;;;5.00;99.90;;;;;;5151119;27;20087;-71
2022/03/01 08:48:39;;;;;;;20.92;13.57;;;5.10;99.90;;;;;;5153247;27;20026;-72
2022/03/01 08:51:05;;;;;;;21.40;13.70;;;5.10;99.90;;;;;;5152098;27;21238;-72
2022/03/01 08:53:32;;;;;;;22.13;14.40;;;5.20;99.90;;;;;;5151770;27;20046;-71
2022/03/01 08:55:58;;;;;;;22.83;13.98;;;5.30;99.90;;;;;;5145024;27;20043;-72
2022/03/01 08:58:24;;;;;;;19.58;13.43;;;5.40;99.90;;;;;;5149997;27;20767;-72
2022/03/01 09:00:51;;;;;;;21.40;14.00;;;5.40;99.90;;;;;;5149796;27;20046;-72
2022/03/01 09:03:17;;;;;;;20.80;14.07;;;5.60;99.90;;;;;;5151286;27;20089;-72
2022/03/01 09:05:43;;;;;;;20.23;13.43;;;5.70;99.90;;;;;;5149492;27;20039;-72
2022/03/01 09:08:14;;;;;;;17.70;12.75;;;5.70;99.90;;;;;;5151969;27;20628;-72
2022/03/01 09:10:40;;;;;;;20.38;13.63;;;5.80;99.90;;;;;;5149501;27;20042;-72
2022/03/01 09:13:06;;;;;;;26.55;13.82;;;5.90;99.90;;;;;;5151131;27;20035;-72
2022/03/01 09:15:32;;;;;;;19.33;13.25;;;6.10;99.90;;;;;;5149642;27;20053;-72
2022/03/01 09:18:08;;;;;;;19.33;12.85;;;6.20;99.90;;;;;;5149445;27;20039;-72
2022/03/01 09:20:34;;;;;;;19.10;12.77;;;6.30;99.90;;;;;;5151384;27;20413;-72
2022/03/01 09:23:01;;;;;;;18.67;12.70;;;6.50;99.90;;;;;;5130829;27;20062;-72
2022/03/01 09:25:28;;;;;;;19.02;12.32;;;6.60;99.90;;;;;;5150005;27;20088;-72
2022/03/01 09:27:54;;;;;;;20.40;12.60;;;6.70;99.90;;;;;;5150769;27;20046;-72
2022/03/01 09:30:21;;;;;;;20.63;12.48;;;6.70;99.90;;;;;;5151597;27;20039;-72
2022/03/01 09:32:47;;;;;;;21.38;13.88;;;6.70;99.90;;;;;;5149380;27;20106;-72
2022/03/01 09:35:14;;;;;;;19.25;13.00;;;6.70;99.90;;;;;;5150573;27;20523;-72
2022/03/01 09:37:41;;;;;;;18.17;12.93;;;6.80;99.90;;;;;;5149749;27;20047;-72
2022/03/01 09:40:09;;;;;;;20.92;13.07;;;6.80;99.90;;;;;;5150633;27;20054;-72
2022/03/01 09:42:35;;;;;;;22.08;13.18;;;6.80;99.90;;;;;;5130980;27;20425;-72
2022/03/01 09:45:01;;;;;;;21.35;12.93;;;6.80;99.90;;;;;;5150038;27;20042;-71
2022/03/01 09:47:26;;;;;;;18.33;12.68;;;6.80;99.90;;;;;;5149181;27;20194;-72
2022/03/01 09:49:53;;;;;;;19.83;13.32;;;6.80;99.90;;;;;;5148784;27;20047;-72
2022/03/01 09:52:19;;;;;;;20.50;13.52;;;6.80;99.90;;;;;;5149035;27;20096;-72
2022/03/01 09:54:48;;;;;;;22.33;13.13;;;6.80;99.90;;;;;;5149951;27;20035;-72
2022/03/01 09:57:14;;;;;;;22.60;13.85;;;6.90;99.90;;;;;;5151565;27;20027;-72
2022/03/01 09:59:41;;;;;;;20.42;13.15;;;6.80;99.90;;;;;;5151663;27;20069;-72
2022/03/01 10:02:08;;;;;;;19.13;13.15;;;6.90;99.90;;;;;;5150071;27;20486;-72
2022/03/01 10:04:37;;;;;;;22.30;12.32;;;6.80;99.90;;;;;;5150525;27;20339;-72
2022/03/01 10:07:03;;;;;;;20.50;13.30;;;7.00;99.90;;;;;;5151742;27;20035;-72
2022/03/01 10:09:29;;;;;;;18.83;12.20;;;7.00;99.90;;;;;;5149601;27;20039;-71
2022/03/01 10:11:54;;;;;;;19.33;13.15;;;7.10;99.90;;;;;;5148834;27;20055;-72
2022/03/01 10:14:31;;;;;;;18.70;12.95;;;7.10;99.90;;;;;;5150633;27;20087;-72
2022/03/01 10:16:57;;;;;;;20.08;13.25;;;7.10;99.90;;;;;;5149838;27;20494;-72
2022/03/01 10:19:24;;;;;;;23.17;13.70;;;7.20;99.90;;;;;;5150315;27;20034;-71
2022/03/01 10:21:58;;;;;;;20.95;13.20;;;7.30;99.90;;;;;;5149402;27;20070;-72
2022/03/01 10:24:24;;;;;;;19.92;13.00;;;7.40;99.90;;;;;;5149405;27;20035;-72
2022/03/01 10:26:56;;;;;;;19.40;12.77;;;7.50;99.90;;;;;;5147964;27;20049;-71
2022/03/01 10:29:26;;;;;;;17.85;12.90;;;7.70;99.90;;;;;;5133007;27;20106;-72
2022/03/01 10:31:52;;;;;;;20.83;13.30;;;7.80;99.90;;;;;;5150163;27;20026;-72
2022/03/01 10:34:18;;;;;;;18.45;12.70;;;8.00;99.90;;;;;;5149025;27;20517;-72
2022/03/01 10:36:47;;;;;;;16.80;12.25;;;8.20;99.90;;;;;;5149539;27;20050;-72
2022/03/01 10:39:28;;;;;;;22.58;14.27;;;8.20;99.90;;;;;;5149532;27;20035;-72
2022/03/01 10:41:54;;;;;;;19.92;12.80;;;8.30;99.90;;;;;;5148528;27;20042;-72
2022/03/01 10:44:23;;;;;;;17.85;11.95;;;8.30;99.90;;;;;;5148277;27;20163;-72
2022/03/01 10:46:50;;;;;;;17.65;12.98;;;8.40;99.90;;;;;;5148563;27;20035;-72
2022/03/01 10:49:20;;;;;;;17.80;12.32;;;8.50;99.90;;;;;;5150800;27;20474;-72
2022/03/01 10:52:03;;;;;;;16.42;11.90;;;8.50;99.90;;;;;;5148080;27;20035;-72
2022/03/01 10:54:37;;;;;;;16.73;12.40;;;8.60;99.90;;;;;;5148692;27;20039;-72
2022/03/01 10:57:05;;;;;;;17.23;13.13;;;8.60;99.90;;;;;;5148284;27;20348;-72
2022/03/01 10:59:33;;;;;;;16.17;12.20;;;8.70;99.90;;;;;;5148297;27;20038;-72
2022/03/01 11:02:00;;;;;;;21.35;13.65;;;8.70;99.90;;;;;;5147223;27;20047;-72
2022/03/01 11:04:27;;;;;;;17.70;13.02;;;8.80;99.90;;;;;;5150026;27;20026;-72
2022/03/01 11:06:58;;;;;;;16.95;12.93;;;8.90;99.90;;;;;;5148215;27;20044;-72
2022/03/01 11:09:28;;;;;;;19.73;12.93;;;8.90;99.90;;;;;;5150089;27;20535;-72
2022/03/01 11:11:55;;;;;;;17.52;12.30;;;9.00;99.90;;;;;;5149728;27;20047;-72
2022/03/01 11:14:35;;;;;;;17.05;12.18;;;9.10;99.90;;;;;;5148246;27;20074;-73
2022/03/01 11:17:10;;;;;;;18.25;12.77;;;9.30;99.90;;;;;;5146896;27;20041;-72
2022/03/01 11:19:54;;;;;;;19.83;12.90;;;9.40;99.90;;;;;;5148325;27;20046;-72
2022/03/01 11:22:25;;;;;;;17.90;13.02;;;9.40;99.90;;;;;;5148673;27;20031;-72
2022/03/01 11:24:51;;;;;;;19.83;13.15;;;9.60;99.90;;;;;;5149902;27;20355;-73
2022/03/01 11:27:20;;;;;;;19.23;12.88;;;9.60;99.90;;;;;;5150251;27;20034;-73
2022/03/01 11:29:46;;;;;;;20.60;13.32;;;9.70;99.90;;;;;;5149773;27;20119;-72
2022/03/01 11:32:14;;;;;;;14.85;11.50;;;9.70;99.90;;;;;;5146359;27;20067;-72
2022/03/01 11:34:40;;;;;;;17.85;12.75;;;9.80;99.90;;;;;;5147594;27;20137;-72
2022/03/01 11:37:16;;;;;;;16.60;12.52;;;9.80;99.90;;;;;;5148262;27;20390;-72
2022/03/01 11:39:43;;;;;;;17.83;13.27;;;9.80;99.90;;;;;;5150193;27;20034;-72
2022/03/01 11:42:17;;;;;;;16.08;12.30;;;9.80;99.90;;;;;;5148958;27;20035;-72
2022/03/01 11:44:52;;;;;;;18.20;13.05;;;9.80;99.90;;;;;;5147769;27;20031;-72
2022/03/01 11:47:30;;;;;;;17.75;12.45;;;9.80;99.90;;;;;;5148452;27;20356;-72
2022/03/01 11:49:56;;;;;;;17.75;12.77;;;9.80;99.60;;;;;;5148574;27;20179;-72
2022/03/01 11:52:26;;;;;;;19.77;12.77;;;9.70;99.90;;;;;;5145763;27;20117;-72
2022/03/01 11:54:55;;;;;;;20.67;12.77;;;9.70;99.90;;;;;;5147302;27;20518;-72
2022/03/01 11:57:29;;;;;;;17.38;12.75;;;9.70;99.90;;;;;;5146293;27;20114;-72
2022/03/01 11:59:58;;;;;;;16.60;12.18;;;9.80;99.90;;;;;;5147702;27;20047;-72
2022/03/01 12:02:26;;;;;;;16.85;12.23;;;9.80;99.90;;;;;;5147920;27;20106;-72
2022/03/01 12:04:55;;;;;;;19.33;13.05;;;9.70;99.60;;;;;;5147902;27;20061;-72
2022/03/01 12:07:27;;;;;;;18.10;12.27;;;9.60;99.50;;;;;;5146304;27;20057;-72
2022/03/01 12:09:58;;;;;;;19.13;12.75;;;9.50;99.80;;;;;;5149494;27;20047;-72
2022/03/01 12:12:31;;;;;;;18.42;12.90;;;9.40;99.90;;;;;;5148861;27;20078;-72
2022/03/01 12:14:57;;;;;;;16.27;12.07;;;9.40;99.90;;;;;;5148482;27;20039;-72
2022/03/01 12:17:23;;;;;;;18.17;12.15;;;9.30;99.70;;;;;;5147136;27;20043;-72
2022/03/01 12:20:00;;;;;;;18.33;13.50;;;9.30;99.90;;;;;;5150262;27;20035;-72
2022/03/01 12:22:26;;;;;;;17.63;12.73;;;9.20;99.90;;;;;;5147726;27;20046;-73
2022/03/01 12:24:52;;;;;;;19.20;12.52;;;9.20;99.90;;;;;;5148804;27;20034;-72
2022/03/01 12:27:18;;;;;;;20.92;13.80;;;9.10;99.90;;;;;;5148128;27;20121;-72
2022/03/01 12:29:47;;;;;;;16.30;11.95;;;9.10;99.90;;;;;;5148519;27;20370;-72
2022/03/01 12:32:18;;;;;;;20.02;12.48;;;9.00;99.90;;;;;;5148580;27;20114;-72
2022/03/01 12:34:43;;;;;;;16.98;12.10;;;9.00;99.80;;;;;;5149210;27;20026;-72